Time;durP1;ratioP1;P1;durP2;ratioP2;P2;SDS_P1;SDS_P2;PMS_P1;PMS_P2;Temp;Humidity;BMP_temperature;BMP_pressure;BME280_temperature;BME280_humidity;BME280_pressure;Samples;Min_cycle;Max_cycle;Signal;HPM_P1;HPM_P2
2023/05/21 00:00:35;;;;;;;;;;;;;;;16.80;53.00;101963.75;7350927;19;20339;-65
2023/05/21 00:03:00;;;;;;;;;;;;;;;16.79;53.01;101969.94;7353346;19;19926;-67
2023/05/21 00:05:25;;;;;;;;;;;;;;;16.76;53.21;101962.97;7350104;19;19934;-67
2023/05/21 00:07:52;;;;;;;;;;;;;;;16.74;53.50;101962.16;7351210;19;20327;-67
2023/05/21 00:10:17;;;;;;;;;;;;;;;16.73;53.19;101962.19;7353549;19;19942;-67
2023/05/21 00:12:43;;;;;;;;;;;;;;;16.71;53.45;101961.31;7354489;19;19927;-67
2023/05/21 00:15:08;;;;;;;;;;;;;;;16.70;53.57;101964.88;7354018;19;19922;-65
2023/05/21 00:17:35;;;;;;;;;;;;;;;16.67;53.25;101960.53;7353770;19;19919;-67
2023/05/21 00:20:01;;;;;;;;;;;;;;;16.67;53.45;101957.91;7352563;19;20314;-67
2023/05/21 00:22:26;;;;;;;;;;;;;;;16.64;53.70;101944.81;7351045;19;20007;-67
2023/05/21 00:24:51;;;;;;;;;;;;;;;16.62;53.25;101946.63;7351009;19;19934;-65
2023/05/21 00:27:16;;;;;;;;;;;;;;;16.60;53.44;101937.88;7351866;19;20273;-67
2023/05/21 00:29:42;;;;;;;;;;;;;;;16.57;53.45;101933.59;7354246;19;20265;-66
2023/05/21 00:32:08;;;;;;;;;;;;;;;16.55;53.76;101937.16;7353057;19;19929;-67
2023/05/21 00:34:33;;;;;;;;;;;;;;;16.53;53.83;101942.47;7353297;19;19914;-69
2023/05/21 00:37:01;;;;;;;;;;;;;;;16.53;53.85;101931.06;7352874;19;19918;-67
2023/05/21 00:39:26;;;;;;;;;;;;;;;16.50;53.93;101921.47;7347242;19;20123;-66
2023/05/21 00:41:52;;;;;;;;;;;;;;;16.50;53.56;101925.88;7359904;19;19989;-67
2023/05/21 00:44:19;;;;;;;;;;;;;;;16.49;54.01;101924.16;7359844;19;19926;-66
2023/05/21 00:46:47;;;;;;;;;;;;;;;16.47;53.68;101926.81;7362387;19;19978;-67
2023/05/21 00:49:13;;;;;;;;;;;;;;;16.45;53.84;101930.41;7357312;19;19923;-66
2023/05/21 00:51:39;;;;;;;;;;;;;;;16.45;53.93;101925.13;7362803;19;20343;-67
2023/05/21 00:54:04;;;;;;;;;;;;;;;16.43;54.01;101919.06;7360317;19;19951;-67
2023/05/21 00:56:29;;;;;;;;;;;;;;;16.43;53.94;101929.59;7361711;19;19957;-67
2023/05/21 00:58:58;;;;;;;;;;;;;;;16.40;54.08;101914.72;7361379;19;19923;-66
2023/05/21 01:01:32;;;;;;;;;;;;;;;16.39;54.07;101922.66;7358855;19;21962;-67
2023/05/21 01:04:00;;;;;;;;;;;;;;;16.39;54.11;101925.31;7359144;19;19925;-67
2023/05/21 01:06:26;;;;;;;;;;;;;;;16.35;53.75;101912.19;7360948;19;20793;-67
2023/05/21 01:08:51;;;;;;;;;;;;;;;16.34;54.27;101910.47;7362085;19;19918;-67
2023/05/21 01:11:17;;;;;;;;;;;;;;;16.33;53.72;101914.03;7356395;19;19994;-66
2023/05/21 01:13:43;;;;;;;;;;;;;;;16.30;53.78;101914.09;7361434;19;19934;-67
2023/05/21 01:16:09;;;;;;;;;;;;;;;16.29;54.17;101907.09;7360338;19;19922;-66
2023/05/21 01:18:36;;;;;;;;;;;;;;;16.28;54.07;101910.66;7359087;19;19923;-67
2023/05/21 01:21:02;;;;;;;;;;;;;;;16.26;53.89;101907.16;7356985;19;20619;-67
2023/05/21 01:23:28;;;;;;;;;;;;;;;16.27;53.71;101908.03;7360687;19;19923;-67
2023/05/21 01:25:53;;;;;;;;;;;;;;;16.23;54.01;101909.91;7353242;19;19921;-67
2023/05/21 01:28:19;;;;;;;;;;;;;;;16.21;53.66;101903.78;7356724;19;19918;-67
2023/05/21 01:30:44;;;;;;;;;;;;;;;16.19;53.82;101900.34;7356811;19;20201;-67
2023/05/21 01:33:11;;;;;;;;;;;;;;;16.17;54.09;101910.06;7355783;19;19921;-67
2023/05/21 01:35:55;;;;;;;;;;;;;;;16.14;54.21;101902.25;7358816;19;19933;-67
2023/05/21 01:38:25;;;;;;;;;;;;;;;16.12;54.11;101904.06;7359306;19;19927;-67
2023/05/21 01:40:53;;;;;;;;;;;;;;;16.11;54.34;101910.22;7357828;19;19931;-67
2023/05/21 01:43:19;;;;;;;;;;;;;;;16.09;54.36;101909.41;7354498;19;19934;-67
2023/05/21 01:45:46;;;;;;;;;;;;;;;16.08;54.34;101897.13;7359262;19;19922;-67
2023/05/21 01:48:11;;;;;;;;;;;;;;;16.05;54.29;101892.81;7359646;19;19946;-67
2023/05/21 01:50:38;;;;;;;;;;;;;;;16.04;54.48;101900.75;7357992;19;19943;-67
2023/05/21 01:53:04;;;;;;;;;;;;;;;16.02;54.59;101903.44;7358850;19;19938;-67
2023/05/21 01:55:30;;;;;;;;;;;;;;;16.00;54.51;101899.09;7357991;19;20648;-66
2023/05/21 01:57:56;;;;;;;;;;;;;;;15.98;54.27;101896.50;7350073;19;19915;-67
2023/05/21 02:00:22;;;;;;;;;;;;;;;15.96;54.42;101886.91;7352999;19;20668;-67
2023/05/21 02:02:48;;;;;;;;;;;;;;;15.95;54.23;101895.72;7358074;19;20285;-67
2023/05/21 02:05:13;;;;;;;;;;;;;;;15.93;54.17;101892.28;7351875;19;20001;-67
2023/05/21 02:07:39;;;;;;;;;;;;;;;15.90;54.28;101897.59;7357479;19;19935;-67
2023/05/21 02:10:05;;;;;;;;;;;;;;;15.88;54.67;101902.06;7358235;19;19918;-67
2023/05/21 02:12:30;;;;;;;;;;;;;;;15.87;54.61;101892.44;7356231;19;19954;-67
2023/05/21 02:14:56;;;;;;;;;;;;;;;15.82;54.35;101896.06;7351080;19;19914;-67
2023/05/21 02:17:23;;;;;;;;;;;;;;;15.80;54.52;101897.84;7355971;19;19922;-67
2023/05/21 02:19:48;;;;;;;;;;;;;;;15.77;54.42;101895.31;7357505;19;19919;-67
2023/05/21 02:22:13;;;;;;;;;;;;;;;15.75;54.76;101894.44;7352490;19;20627;-67
2023/05/21 02:24:38;;;;;;;;;;;;;;;15.72;54.46;101891.91;7357790;19;19925;-67
2023/05/21 02:27:05;;;;;;;;;;;;;;;15.69;54.36;101893.75;7355985;19;20006;-67
2023/05/21 02:29:30;;;;;;;;;;;;;;;15.66;54.61;101893.81;7356239;19;19915;-67
2023/05/21 02:31:55;;;;;;;;;;;;;;;15.62;53.96;101887.75;7355793;19;20550;-67
2023/05/21 02:34:21;;;;;;;;;;;;;;;15.57;54.51;101892.25;7356349;19;20732;-67
2023/05/21 02:36:51;;;;;;;;;;;;;;;15.54;54.12;101889.69;7351256;19;20870;-67
2023/05/21 02:39:17;;;;;;;;;;;;;;;15.48;54.44;101879.31;7354837;19;19942;-67
2023/05/21 02:41:42;;;;;;;;;;;;;;;15.46;54.75;101896.91;7355771;19;19951;-67
2023/05/21 02:44:07;;;;;;;;;;;;;;;15.42;54.56;101900.53;7354286;19;20253;-67
2023/05/21 02:46:33;;;;;;;;;;;;;;;15.38;54.56;101891.84;7358503;19;20603;-67
2023/05/21 02:48:58;;;;;;;;;;;;;;;15.36;54.91;101890.13;7350856;19;19946;-67
2023/05/21 02:51:23;;;;;;;;;;;;;;;15.34;54.72;101891.94;7355713;19;20241;-67
2023/05/21 02:53:48;;;;;;;;;;;;;;;15.31;54.49;101888.50;7355712;19;19934;-67
2023/05/21 02:56:14;;;;;;;;;;;;;;;15.27;55.05;101886.81;7355558;19;19946;-67
2023/05/21 02:58:40;;;;;;;;;;;;;;;15.25;54.71;101893.88;7350661;19;19932;-66
2023/05/21 03:01:05;;;;;;;;;;;;;;;15.23;54.55;101885.16;7355332;19;19922;-66
2023/05/21 03:03:31;;;;;;;;;;;;;;;15.22;54.73;101887.84;7338520;19;20509;-67
2023/05/21 03:05:57;;;;;;;;;;;;;;;15.20;55.00;101890.47;7347866;19;19930;-66
2023/05/21 03:08:23;;;;;;;;;;;;;;;15.19;54.94;101893.16;7354280;19;19925;-67
2023/05/21 03:10:48;;;;;;;;;;;;;;;15.18;54.94;101892.28;7349369;19;19915;-66
2023/05/21 03:13:14;;;;;;;;;;;;;;;15.17;55.13;101885.31;7352987;19;20477;-67
2023/05/21 03:15:39;;;;;;;;;;;;;;;15.17;55.37;101890.56;7353275;19;19929;-66
2023/05/21 03:18:04;;;;;;;;;;;;;;;15.18;55.17;101892.28;7351135;19;19919;-66
2023/05/21 03:20:30;;;;;;;;;;;;;;;15.18;55.31;101892.28;7338959;19;19929;-66
2023/05/21 03:22:56;;;;;;;;;;;;;;;15.18;55.40;101884.41;7349770;19;20562;-67
2023/05/21 03:25:23;;;;;;;;;;;;;;;15.19;54.92;101891.38;7351651;19;19990;-67
2023/05/21 03:27:49;;;;;;;;;;;;;;;15.19;55.06;101886.13;7349308;19;19918;-67
2023/05/21 03:30:14;;;;;;;;;;;;;;;15.20;55.32;101890.47;7353225;19;19933;-67
2023/05/21 03:32:40;;;;;;;;;;;;;;;15.22;55.34;101893.97;7351108;19;20862;-66
2023/05/21 03:35:05;;;;;;;;;;;;;;;14.93;55.34;101843.75;7352106;19;19922;-67
2023/05/21 03:37:31;;;;;;;;;;;;;;;15.23;55.05;101889.56;7356657;19;20029;-66
2023/05/21 03:39:56;;;;;;;;;;;;;;;15.23;55.28;101886.94;7352888;19;19946;-67
2023/05/21 03:42:21;;;;;;;;;;;;;;;15.23;55.40;101885.16;7346949;19;19957;-67
2023/05/21 03:44:46;;;;;;;;;;;;;;;15.22;55.36;101888.69;7353430;19;19957;-67
2023/05/21 03:47:12;;;;;;;;;;;;;;;15.21;55.25;101886.97;7354276;19;19926;-66
2023/05/21 03:49:37;;;;;;;;;;;;;;;15.22;55.18;101886.06;7353843;19;19929;-67
2023/05/21 03:52:02;;;;;;;;;;;;;;;15.23;55.65;101887.78;7351879;19;19952;-67
2023/05/21 03:54:27;;;;;;;;;;;;;;;15.23;55.41;101890.41;7353761;19;19943;-67
2023/05/21 03:56:53;;;;;;;;;;;;;;;15.24;55.67;101888.66;7353605;19;19922;-67
2023/05/21 03:59:18;;;;;;;;;;;;;;;15.24;55.50;101886.88;7353877;19;19937;-67
2023/05/21 04:01:44;;;;;;;;;;;;;;;15.25;55.25;101883.34;7349370;19;19922;-67
2023/05/21 04:04:09;;;;;;;;;;;;;;;15.25;55.46;101883.34;7204104;19;2885760;-67
2023/05/21 04:06:35;;;;;;;;;;;;;;;15.26;55.39;101890.34;7352344;19;19906;-67
2023/05/21 04:09:01;;;;;;;;;;;;;;;15.26;55.47;101885.09;7355814;19;19931;-67
2023/05/21 04:11:26;;;;;;;;;;;;;;;15.27;55.69;101880.69;7353318;19;19972;-67
2023/05/21 04:13:51;;;;;;;;;;;;;;;15.28;55.22;101879.78;7356766;19;19945;-67
2023/05/21 04:16:17;;;;;;;;;;;;;;;15.28;55.61;101878.03;7354559;19;19936;-67
2023/05/21 04:18:43;;;;;;;;;;;;;;;15.29;55.51;101874.47;7358043;19;19994;-67
2023/05/21 04:21:08;;;;;;;;;;;;;;;15.30;55.21;101870.06;7352087;19;20539;-67
2023/05/21 04:23:35;;;;;;;;;;;;;;;15.31;55.34;101869.19;7356023;19;19922;-67
2023/05/21 04:26:00;;;;;;;;;;;;;;;15.31;55.44;101870.06;7354600;19;19982;-67
2023/05/21 04:28:27;;;;;;;;;;;;;;;15.32;55.33;101871.78;7356075;19;20008;-67
2023/05/21 04:30:52;;;;;;;;;;;;;;;15.33;55.73;101872.66;7353339;19;19919;-67
2023/05/21 04:33:18;;;;;;;;;;;;;;;15.34;55.32;101870.88;7357063;19;19934;-67
2023/05/21 04:35:49;;;;;;;;;;;;;;;15.34;55.72;101869.09;7354670;19;19926;-67
2023/05/21 04:38:18;;;;;;;;;;;;;;;15.36;55.71;101869.97;7352939;19;19918;-67
2023/05/21 04:40:44;;;;;;;;;;;;;;;15.36;55.68;101869.97;7348311;19;20473;-67
2023/05/21 04:43:10;;;;;;;;;;;;;;;15.37;55.42;101871.69;7351921;19;19923;-67
2023/05/21 04:45:35;;;;;;;;;;;;;;;15.39;55.11;101853.22;7349998;19;19922;-66
2023/05/21 04:48:01;;;;;;;;;;;;;;;15.39;55.22;101858.47;7352290;19;20381;-66
2023/05/21 04:50:29;;;;;;;;;;;;;;;15.39;55.33;101864.59;7354275;19;20694;-66
2023/05/21 04:52:54;;;;;;;;;;;;;;;15.39;55.55;101859.34;7352133;19;20283;-67
2023/05/21 04:55:20;;;;;;;;;;;;;;;15.40;55.66;101863.69;7353522;19;20576;-67
2023/05/21 04:57:45;;;;;;;;;;;;;;;15.40;55.66;101865.47;7354450;19;19915;-67
2023/05/21 05:00:10;;;;;;;;;;;;;;;15.41;55.59;101857.56;7354828;19;20354;-67
2023/05/21 05:02:36;;;;;;;;;;;;;;;15.43;55.48;101854.88;7352975;19;19930;-67
2023/05/21 05:05:01;;;;;;;;;;;;;;;15.44;55.29;101857.47;7354855;19;19919;-66
2023/05/21 05:07:26;;;;;;;;;;;;;;;15.47;55.64;101856.53;7355532;19;21580;-67
2023/05/21 05:09:52;;;;;;;;;;;;;;;15.48;55.20;101853.00;7353813;19;19914;-67
2023/05/21 05:12:17;;;;;;;;;;;;;;;15.49;55.43;101858.22;7353745;19;19922;-67
2023/05/21 05:14:42;;;;;;;;;;;;;;;15.51;55.45;101855.53;7349712;19;20359;-65
2023/05/21 05:17:08;;;;;;;;;;;;;;;15.52;55.75;101854.66;7353601;19;20362;-67
2023/05/21 05:19:34;;;;;;;;;;;;;;;15.55;55.43;101854.56;7348749;19;19929;-66
2023/05/21 05:21:59;;;;;;;;;;;;;;;15.56;55.50;101846.66;7352873;19;19923;-67
2023/05/21 05:24:24;;;;;;;;;;;;;;;15.59;55.39;101856.22;7349740;19;20005;-67
2023/05/21 05:26:50;;;;;;;;;;;;;;;15.62;55.84;101856.16;7356493;19;19923;-67
2023/05/21 05:29:15;;;;;;;;;;;;;;;15.64;55.46;101854.38;7359444;19;19994;-67
2023/05/21 05:31:40;;;;;;;;;;;;;;;15.66;55.33;101857.84;7360879;19;19927;-67
2023/05/21 05:34:05;;;;;;;;;;;;;;;15.69;55.31;101852.47;7355661;19;20375;-67
2023/05/21 05:36:31;;;;;;;;;;;;;;;15.71;55.83;101858.59;7360088;19;19929;-67
2023/05/21 05:38:56;;;;;;;;;;;;;;;15.73;55.33;101859.41;7361320;19;19944;-67
2023/05/21 05:41:21;;;;;;;;;;;;;;;15.76;55.74;101850.53;7358274;19;19951;-67
2023/05/21 05:43:46;;;;;;;;;;;;;;;15.77;55.50;101855.78;7361570;19;20351;-67
2023/05/21 05:46:12;;;;;;;;;;;;;;;15.80;55.59;101866.22;7356359;19;20557;-66
2023/05/21 05:48:37;;;;;;;;;;;;;;;15.82;55.42;101864.44;7359128;19;19931;-67
2023/05/21 05:51:02;;;;;;;;;;;;;;;15.85;55.53;101862.63;7360473;19;19938;-67
2023/05/21 05:53:28;;;;;;;;;;;;;;;15.86;55.42;101865.19;7357089;19;19925;-67
2023/05/21 05:55:53;;;;;;;;;;;;;;;15.89;55.66;101867.78;7356525;19;19930;-66
2023/05/21 05:58:18;;;;;;;;;;;;;;;15.89;55.60;101859.88;7347955;19;20027;-66
2023/05/21 06:00:46;;;;;;;;;;;;;;;15.91;55.62;101865.09;7356605;19;19918;-66
2023/05/21 06:03:12;;;;;;;;;;;;;;;15.93;55.36;101871.19;7357910;19;19922;-67
2023/05/21 06:05:37;;;;;;;;;;;;;;;15.94;55.40;101863.25;7349734;19;19923;-60
2023/05/21 06:08:02;;;;;;;;;;;;;;;15.96;55.50;101877.22;7356231;19;20272;-60
2023/05/21 06:10:27;;;;;;;;;;;;;;;15.66;55.28;101815.72;7357412;19;19970;-60
2023/05/21 06:12:53;;;;;;;;;;;;;;;16.01;55.14;101874.47;7355172;19;19974;-61
2023/05/21 06:15:18;;;;;;;;;;;;;;;16.04;55.62;101879.69;7353564;19;19956;-60
2023/05/21 06:17:43;;;;;;;;;;;;;;;16.05;55.50;101876.13;7357791;19;19930;-60
2023/05/21 06:20:09;;;;;;;;;;;;;;;16.08;55.64;101881.31;7356872;19;19915;-59
2023/05/21 06:22:35;;;;;;;;;;;;;;;16.11;55.41;101880.38;7352669;19;20358;-60
2023/05/21 06:25:00;;;;;;;;;;;;;;;16.14;55.66;101886.44;7344549;19;19955;-61
2023/05/21 06:27:26;;;;;;;;;;;;;;;16.17;55.56;101881.09;7338546;19;19934;-59
2023/05/21 06:29:51;;;;;;;;;;;;;;;16.19;55.38;101878.41;7344546;19;19929;-60
2023/05/21 06:32:16;;;;;;;;;;;;;;;16.23;55.35;101880.06;7353096;19;19985;-60
2023/05/21 06:34:42;;;;;;;;;;;;;;;16.26;55.18;101880.81;7342211;19;19919;-60
2023/05/21 07:03:12;;;;;;;;;;;;;;;16.72;55.47;101899.78;7394236;19;19924;-60
2023/05/21 07:05:37;;;;;;;;;;;;;;;16.76;55.89;101897.00;7341086;19;20440;-60
2023/05/21 07:08:03;;;;;;;;;;;;;;;16.81;55.78;101895.09;7355471;19;19926;-60
2023/05/21 07:10:28;;;;;;;;;;;;;;;16.86;55.79;101901.09;7356051;19;20555;-61
2023/05/21 07:12:53;;;;;;;;;;;;;;;16.93;55.59;101899.16;7356397;19;19922;-60
2023/05/21 07:15:18;;;;;;;;;;;;;;;17.00;55.62;101900.69;7357248;19;20024;-60
2023/05/21 07:17:44;;;;;;;;;;;;;;;17.06;55.57;101908.41;7354139;19;20728;-61
2023/05/21 07:20:10;;;;;;;;;;;;;;;17.12;55.53;101902.09;7355203;19;19922;-61
2023/05/21 07:22:38;;;;;;;;;;;;;;;16.89;55.80;101849.16;7351282;19;20956;-60
2023/05/21 07:25:04;;;;;;;;;;;;;;;17.28;56.00;101905.97;7355192;19;19990;-60
2023/05/21 07:27:29;;;;;;;;;;;;;;;17.35;55.74;101910.16;7356830;19;20526;-60
2023/05/21 07:29:55;;;;;;;;;;;;;;;17.44;55.61;101908.16;7353538;19;19914;-60
2023/05/21 07:32:20;;;;;;;;;;;;;;;17.51;56.06;101907.91;7357893;19;20328;-60
2023/05/21 07:34:46;;;;;;;;;;;;;;;17.59;55.81;101911.16;7349866;19;20444;-61
2023/05/21 07:37:12;;;;;;;;;;;;;;;17.67;55.78;101918.81;7356862;19;19981;-60
2023/05/21 07:39:37;;;;;;;;;;;;;;;17.73;55.48;101908.06;7352608;19;19924;-61
2023/05/21 07:42:03;;;;;;;;;;;;;;;17.79;55.38;101907.91;7356661;19;20539;-61
2023/05/21 07:44:28;;;;;;;;;;;;;;;17.83;55.82;101909.50;7354293;19;19922;-61
2023/05/21 07:46:53;;;;;;;;;;;;;;;17.89;55.73;101909.31;7356005;19;20720;-60
2023/05/21 07:49:18;;;;;;;;;;;;;;;17.95;55.33;101912.66;7353449;19;19939;-60
2023/05/21 07:51:44;;;;;;;;;;;;;;;17.99;55.47;101916.91;7349155;19;19930;-60
2023/05/21 07:54:09;;;;;;;;;;;;;;;18.05;55.39;101916.72;7355741;19;19933;-60
2023/05/21 07:56:35;;;;;;;;;;;;;;;18.07;55.50;101918.38;7352606;19;19954;-60
2023/05/21 07:59:00;;;;;;;;;;;;;;;18.13;55.44;101919.94;7353879;19;19938;-61
2023/05/21 08:01:27;;;;;;;;;;;;;;;18.18;55.82;101920.66;7354450;19;19910;-60
2023/05/21 08:03:52;;;;;;;;;;;;;;;18.23;55.56;101918.69;7353938;19;19931;-62
2023/05/21 08:06:17;;;;;;;;;;;;;;;18.28;55.63;101918.53;7353945;19;19939;-61
2023/05/21 08:08:42;;;;;;;;;;;;;;;18.34;55.31;101919.19;7355237;19;19946;-61
2023/05/21 08:11:08;;;;;;;;;;;;;;;18.39;55.73;101916.38;7352838;19;19974;-61
2023/05/21 08:13:33;;;;;;;;;;;;;;;18.45;55.63;101915.28;7355539;19;20474;-60
2023/05/21 08:15:58;;;;;;;;;;;;;;;18.52;55.54;101919.47;7354884;19;20336;-61
2023/05/21 08:18:24;;;;;;;;;;;;;;;18.58;55.81;101921.88;7353680;19;19918;-61
2023/05/21 08:20:49;;;;;;;;;;;;;;;18.66;55.31;101922.47;7351580;19;19914;-61
2023/05/21 08:23:14;;;;;;;;;;;;;;;18.73;55.78;101923.97;7328145;19;19939;-61
2023/05/21 08:25:40;;;;;;;;;;;;;;;18.80;55.49;101925.47;7338456;19;19934;-60
2023/05/21 08:28:05;;;;;;;;;;;;;;;18.87;55.17;101926.13;7341400;19;19942;-60
2023/05/21 08:30:30;;;;;;;;;;;;;;;18.93;55.03;101926.75;7337357;19;19922;-61
2023/05/21 08:32:56;;;;;;;;;;;;;;;19.01;55.00;101929.09;7339948;19;20238;-61
2023/05/21 08:35:21;;;;;;;;;;;;;;;19.07;55.02;101933.31;7340203;19;19943;-61
2023/05/21 08:37:46;;;;;;;;;;;;;;;19.11;54.91;101932.22;7344695;19;19915;-61
2023/05/21 08:40:12;;;;;;;;;;;;;;;19.16;54.92;101928.53;7343275;19;19928;-60
2023/05/21 08:42:47;;;;;;;;;;;;;;;19.22;54.93;101934.50;7342148;19;20633;-60
2023/05/21 08:45:13;;;;;;;;;;;;;;;19.28;54.83;101936.91;7345697;19;20387;-61
2023/05/21 08:47:40;;;;;;;;;;;;;;;19.33;54.98;101935.78;7343369;19;19943;-61
2023/05/21 08:50:08;;;;;;;;;;;;;;;19.38;55.14;101939.13;7341674;19;19943;-60
2023/05/21 08:52:33;;;;;;;;;;;;;;;19.44;55.25;101938.88;7339605;19;19930;-61
2023/05/21 08:54:59;;;;;;;;;;;;;;;19.51;54.83;101938.63;7343157;19;19922;-60
2023/05/21 08:57:25;;;;;;;;;;;;;;;19.56;55.21;101940.16;7333367;19;19935;-62
2023/05/21 08:59:51;;;;;;;;;;;;;;;19.33;55.06;101888.13;7339395;19;19922;-61
2023/05/21 09:02:17;;;;;;;;;;;;;;;19.71;54.80;101941.34;7343651;19;19946;-60
2023/05/21 09:04:48;;;;;;;;;;;;;;;19.77;54.65;101941.13;7346329;19;19918;-60
2023/05/21 09:07:14;;;;;;;;;;;;;;;19.84;54.93;101947.88;7337818;19;19918;-60
2023/05/21 09:09:53;;;;;;;;;;;;;;;19.91;55.01;101944.03;7345887;19;21224;-61
2023/05/21 09:12:19;;;;;;;;;;;;;;;19.98;54.83;101939.34;7327784;19;20758;-60
2023/05/21 09:14:46;;;;;;;;;;;;;;;20.06;54.79;101941.66;7347693;19;19926;-61
2023/05/21 09:17:14;;;;;;;;;;;;;;;20.12;54.71;101941.41;7345058;19;19924;-61
2023/05/21 09:19:59;;;;;;;;;;;;;;;20.18;54.78;101941.16;7347800;19;19979;-61
2023/05/21 09:22:25;;;;;;;;;;;;;;;20.25;54.42;101939.97;7344038;19;19954;-61
2023/05/21 09:24:50;;;;;;;;;;;;;;;20.34;54.70;101944.88;7348452;19;19922;-60
2023/05/21 09:27:17;;;;;;;;;;;;;;;20.40;54.40;101949.91;7346778;19;19923;-61
2023/05/21 09:29:42;;;;;;;;;;;;;;;20.48;54.39;101949.59;7347160;19;19930;-61
2023/05/21 09:32:08;;;;;;;;;;;;;;;20.54;54.43;101944.03;7348532;19;19926;-60
2023/05/21 09:34:34;;;;;;;;;;;;;;;20.61;54.59;101941.94;7345061;19;19923;-61
2023/05/21 09:37:01;;;;;;;;;;;;;;;20.66;54.09;101942.59;7349180;19;21072;-61
2023/05/21 09:39:26;;;;;;;;;;;;;;;20.71;53.96;101946.75;7350375;19;20069;-61
2023/05/21 09:41:52;;;;;;;;;;;;;;;20.77;54.33;101944.75;7348119;19;19914;-61
2023/05/21 09:44:17;;;;;;;;;;;;;;;20.50;54.22;101899.13;7346541;19;20949;-61
2023/05/21 09:46:42;;;;;;;;;;;;;;;20.83;53.79;101945.34;7348108;19;19953;-60
2023/05/21 09:49:23;;;;;;;;;;;;;;;20.86;53.83;101950.53;7347653;19;20010;-60
2023/05/21 09:51:48;;;;;;;;;;;;;;;20.88;53.68;101946.03;7346362;19;19927;-67
2023/05/21 09:54:14;;;;;;;;;;;;;;;20.91;53.87;101947.66;7348327;19;20331;-67
2023/05/21 09:56:39;;;;;;;;;;;;;;;20.92;54.00;101944.06;7347980;19;19926;-67
2023/05/21 09:59:04;;;;;;;;;;;;;;;20.92;53.68;101944.06;7345450;19;19919;-66
2023/05/21 10:01:30;;;;;;;;;;;;;;;20.91;53.93;101939.69;7342879;19;19926;-67
2023/05/21 10:03:56;;;;;;;;;;;;;;;20.90;53.92;101941.47;7347027;19;19919;-67
2023/05/21 10:06:26;;;;;;;;;;;;;;;20.90;53.95;101941.47;7346492;19;19919;-67
2023/05/21 10:08:53;;;;;;;;;;;;;;;20.90;53.54;101936.19;7344706;19;20393;-66
2023/05/21 10:11:21;;;;;;;;;;;;;;;20.91;54.01;101937.03;7346991;19;20502;-67
2023/05/21 10:13:51;;;;;;;;;;;;;;;20.93;53.73;101936.03;7346425;19;19927;-67
2023/05/21 10:16:17;;;;;;;;;;;;;;;20.96;53.88;101941.19;7346528;19;19922;-68
2023/05/21 10:18:43;;;;;;;;;;;;;;;20.99;54.05;101935.75;7346638;19;19943;-67
2023/05/21 10:21:09;;;;;;;;;;;;;;;21.04;53.92;101942.66;7343716;19;20522;-66
2023/05/21 10:23:35;;;;;;;;;;;;;;;21.07;53.68;101931.88;7345254;19;19921;-69
2023/05/21 10:26:01;;;;;;;;;;;;;;;21.11;54.10;101933.44;7345574;19;19923;-67
2023/05/21 10:28:27;;;;;;;;;;;;;;;21.15;53.70;101929.72;7346520;19;19994;-67
2023/05/21 10:30:53;;;;;;;;;;;;;;;21.19;53.80;101931.31;7349450;19;19990;-67
2023/05/21 10:33:18;;;;;;;;;;;;;;;21.12;53.91;101908.59;7348262;19;20695;-67
2023/05/21 10:35:45;;;;;;;;;;;;;;;21.27;53.83;101934.44;7336270;19;19919;-67
2023/05/21 10:38:10;;;;;;;;;;;;;;;21.31;53.94;101936.06;7342114;19;19919;-66
2023/05/21 10:40:36;;;;;;;;;;;;;;;21.34;53.70;101933.25;7349197;19;19948;-67
2023/05/21 10:43:09;;;;;;;;;;;;;;;21.38;53.63;101925.97;7345979;19;19931;-67
2023/05/21 10:46:01;;;;;;;;;;;;;;;21.40;53.38;101932.94;7344369;19;19964;-67
2023/05/21 10:48:26;;;;;;;;;;;;;;;21.42;53.33;101931.06;7244722;19;2004499;-67
2023/05/21 10:50:54;;;;;;;;;;;;;;;21.43;53.36;101927.47;7346402;19;19931;-67
2023/05/21 10:53:38;;;;;;;;;;;;;;;21.45;53.72;101927.41;7348572;19;19919;-67
2023/05/21 10:56:18;;;;;;;;;;;;;;;21.43;53.64;101930.13;7345466;19;19923;-67
2023/05/21 10:58:55;;;;;;;;;;;;;;;21.42;53.27;101933.72;7348675;19;19929;-66
2023/05/21 11:01:21;;;;;;;;;;;;;;;21.40;53.51;101932.94;7346949;19;20764;-67
2023/05/21 11:03:47;;;;;;;;;;;;;;;21.37;53.09;101925.13;7346986;19;19926;-67
2023/05/21 11:06:21;;;;;;;;;;;;;;;21.34;53.10;101930.59;7345998;19;19963;-67
2023/05/21 11:08:46;;;;;;;;;;;;;;;21.33;53.44;101925.34;7346525;19;19958;-67
2023/05/21 11:11:13;;;;;;;;;;;;;;;21.30;53.52;101929.03;7348816;19;19953;-67
2023/05/21 11:13:47;;;;;;;;;;;;;;;21.28;53.18;101925.53;7344338;19;19926;-67
2023/05/21 11:16:13;;;;;;;;;;;;;;;21.26;53.15;101922.09;7346864;19;20454;-67
2023/05/21 11:18:39;;;;;;;;;;;;;;;21.24;53.56;101930.16;7347416;19;19938;-67
2023/05/21 11:21:17;;;;;;;;;;;;;;;21.22;53.65;101921.38;7344440;19;20387;-67
2023/05/21 11:23:49;;;;;;;;;;;;;;;21.20;53.38;101917.94;7345614;19;19923;-67
2023/05/21 11:26:15;;;;;;;;;;;;;;;21.21;53.16;101918.78;7348648;19;19929;-67
2023/05/21 11:28:40;;;;;;;;;;;;;;;21.22;53.17;101915.19;7346668;19;19919;-67
2023/05/21 11:31:24;;;;;;;;;;;;;;;21.04;53.09;101873.59;7346644;19;20033;-66
2023/05/21 11:34:08;;;;;;;;;;;;;;;21.26;53.59;101908.81;7349566;19;19955;-67
2023/05/21 11:36:36;;;;;;;;;;;;;;;21.29;53.21;101916.63;7346342;19;19918;-67
2023/05/21 11:39:09;;;;;;;;;;;;;;;21.32;53.53;101911.19;7343984;19;19941;-66
2023/05/21 11:41:53;;;;;;;;;;;;;;;21.36;53.42;101907.47;7345487;19;20009;-67
2023/05/21 11:44:38;;;;;;;;;;;;;;;21.42;53.29;101909.81;7345132;19;20708;-67
2023/05/21 11:47:04;;;;;;;;;;;;;;;21.50;53.45;101909.44;7348290;19;19939;-67
2023/05/21 11:49:30;;;;;;;;;;;;;;;21.61;53.55;101908.91;7348083;19;20728;-67
2023/05/21 11:51:55;;;;;;;;;;;;;;;21.72;53.42;101909.22;7346821;19;19926;-67
2023/05/21 11:54:21;;;;;;;;;;;;;;;21.84;53.85;101899.75;7347057;19;19922;-67
2023/05/21 11:56:47;;;;;;;;;;;;;;;22.01;54.10;101905.97;7347574;19;20336;-67
2023/05/21 11:59:13;;;;;;;;;;;;;;;22.23;53.77;101895.09;7346288;19;19911;-66
2023/05/21 12:01:40;;;;;;;;;;;;;;;22.49;53.78;101900.81;7346146;19;20332;-66
2023/05/21 12:04:06;;;;;;;;;;;;;;;22.82;54.10;101900.81;7343664;19;19915;-67
2023/05/21 12:06:33;;;;;;;;;;;;;;;23.18;54.18;101900.59;7341615;19;19922;-67
2023/05/21 12:08:58;;;;;;;;;;;;;;;23.52;53.94;101904.00;7343379;19;19998;-67
2023/05/21 12:11:25;;;;;;;;;;;;;;;23.83;53.50;101892.41;7345220;19;19929;-67
2023/05/21 12:13:51;;;;;;;;;;;;;;;24.14;53.46;101896.75;7345799;19;19946;-66
2023/05/21 12:16:16;;;;;;;;;;;;;;;24.47;53.38;101899.19;7343929;19;19985;-67
2023/05/21 12:18:41;;;;;;;;;;;;;;;24.82;53.31;101898.78;7348231;19;19942;-67
2023/05/21 12:21:07;;;;;;;;;;;;;;;25.24;53.48;101899.66;7348106;19;19926;-67
2023/05/21 12:23:32;;;;;;;;;;;;;;;25.65;52.47;101890.72;7344342;19;19932;-67
2023/05/21 12:25:58;;;;;;;;;;;;;;;26.02;52.17;101891.81;7346560;19;20018;-67
2023/05/21 12:28:23;;;;;;;;;;;;;;;26.38;52.08;101893.72;7342533;19;20151;-67
2023/05/21 12:30:48;;;;;;;;;;;;;;;26.74;51.58;101901.00;7344987;19;20610;-67
2023/05/21 12:33:16;;;;;;;;;;;;;;;27.08;51.45;101904.81;7344795;19;19923;-67
2023/05/21 12:35:43;;;;;;;;;;;;;;;27.40;51.17;101905.09;7346701;19;20657;-67
2023/05/21 12:38:09;;;;;;;;;;;;;;;27.31;50.67;101829.81;7351841;19;19919;-66
2023/05/21 12:40:35;;;;;;;;;;;;;;;27.97;49.91;101895.44;7352472;19;19929;-67
2023/05/21 12:43:01;;;;;;;;;;;;;;;28.21;49.30;101899.88;7350388;19;20583;-67
2023/05/21 12:45:27;;;;;;;;;;;;;;;28.39;49.48;101887.72;7351226;19;19956;-67
2023/05/21 12:47:54;;;;;;;;;;;;;;;28.58;48.82;101889.78;7347081;19;19915;-67
2023/05/21 12:50:20;;;;;;;;;;;;;;;28.79;48.66;101892.56;7353780;19;20681;-67
2023/05/21 12:52:45;;;;;;;;;;;;;;;28.99;48.61;101890.97;7351208;19;19945;-67
2023/05/21 12:55:14;;;;;;;;;;;;;;;29.17;48.02;101895.72;7346601;19;19942;-67
2023/05/21 12:57:39;;;;;;;;;;;;;;;29.32;47.54;101895.44;7347737;19;19926;-67